createdAt,value
2019-04-14T00:01:02.281Z,28.95
2019-04-14T00:03:43.283Z,27.35
2019-04-14T00:06:14.051Z,28.02
2019-04-14T00:08:44.129Z,29.37
2019-04-14T00:11:14.742Z,27.58
2019-04-14T00:13:45.807Z,28.40
2019-04-14T00:16:16.382Z,27.50
2019-04-14T00:18:47.471Z,26.52
2019-04-14T00:21:17.411Z,26.75
2019-04-14T00:23:47.923Z,27.40
2019-04-14T00:26:27.206Z,27.77
2019-04-14T00:28:58.083Z,29.52
2019-04-14T00:31:28.690Z,27.13
2019-04-14T00:34:05.107Z,27.77
2019-04-14T00:36:50.225Z,26.73
2019-04-14T00:39:22.637Z,26.25
2019-04-14T00:42:10.803Z,29.12
2019-04-14T00:44:43.023Z,28.92
2019-04-14T00:47:24.641Z,28.23
2019-04-14T00:49:55.166Z,26.57
2019-04-14T00:52:25.465Z,27.77
2019-04-14T00:54:56.475Z,27.60
2019-04-14T00:57:26.877Z,26.20
2019-04-14T00:59:57.328Z,28.83
2019-04-14T01:02:27.577Z,29.30
2019-04-14T01:04:57.760Z,27.90
2019-04-14T01:07:28.346Z,26.93
2019-04-14T01:09:59.596Z,28.47
2019-04-14T01:15:00.760Z,22.65
2019-04-14T01:17:32.988Z,21.30
2019-04-14T01:20:07.820Z,21.65
2019-04-14T01:22:38.106Z,18.73
2019-04-14T01:25:09.229Z,17.55
2019-04-14T01:27:40.545Z,17.17
2019-04-14T01:32:41.537Z,16.48
2019-04-14T01:35:11.774Z,17.20
2019-04-14T01:37:41.950Z,17.92
2019-04-14T01:40:12.128Z,17.23
2019-04-14T01:42:42.254Z,16.32
2019-04-14T01:45:14.439Z,17.67
2019-04-14T01:47:44.602Z,15.98
2019-04-14T01:50:15.119Z,17.37
2019-04-14T01:52:52.559Z,16.60
2019-04-14T01:55:39.526Z,15.65
2019-04-14T01:58:12.232Z,17.10
2019-04-14T02:00:59.662Z,17.10
2019-04-14T02:03:30.242Z,18.35
2019-04-14T02:06:00.432Z,15.68
2019-04-14T02:08:30.790Z,20.65
2019-04-14T02:11:00.995Z,28.00
2019-04-14T02:13:31.138Z,26.40
2019-04-14T02:16:15.068Z,27.02
2019-04-14T02:18:36.205Z,28.02
2019-04-14T02:21:06.913Z,25.57
2019-04-14T02:23:37.023Z,24.43
2019-04-14T02:26:07.105Z,24.12
2019-04-14T02:28:37.561Z,23.70
2019-04-14T02:31:25.095Z,23.95
2019-04-14T02:34:07.391Z,25.08
2019-04-14T02:36:40.255Z,23.32
2019-04-14T02:39:14.001Z,19.82
2019-04-14T02:41:49.302Z,17.27
2019-04-14T02:44:33.608Z,18.15
2019-04-14T02:49:24.434Z,16.85
2019-04-14T02:51:50.207Z,17.05
2019-04-14T02:54:23.142Z,16.35
2019-04-14T02:56:57.075Z,17.02
2019-04-14T02:59:19.701Z,15.48
2019-04-14T03:04:29.363Z,16.23
2019-04-14T03:14:40.219Z,16.32
2019-04-14T03:22:37.039Z,16.00
2019-04-14T03:24:55.808Z,15.83
2019-04-14T03:27:50.562Z,15.80
2019-04-14T03:30:39.175Z,15.75
2019-04-14T03:40:23.696Z,16.50
2019-04-14T03:42:59.085Z,16.48
2019-04-14T03:45:25.751Z,17.23
2019-04-14T03:48:20.864Z,18.75
2019-04-14T03:53:07.362Z,18.37
2019-04-14T03:55:20.460Z,19.45
2019-04-14T03:57:37.550Z,18.75
2019-04-14T04:00:07.783Z,17.80
2019-04-14T04:02:38.049Z,19.35
2019-04-14T04:05:08.521Z,19.70
2019-04-14T04:07:38.861Z,18.10
2019-04-14T04:10:11.435Z,19.00
2019-04-14T04:12:42.189Z,19.48
2019-04-14T04:15:12.561Z,18.92
2019-04-14T04:17:51.574Z,18.80
2019-04-14T04:20:26.395Z,18.98
2019-04-14T04:23:05.115Z,19.35
2019-04-14T04:25:40.053Z,18.98
2019-04-14T04:28:27.793Z,19.20
2019-04-14T04:31:02.474Z,19.15
2019-04-14T04:33:50.094Z,18.90
2019-04-14T04:36:27.257Z,18.55
2019-04-14T04:39:14.875Z,18.12
2019-04-14T04:41:45.074Z,17.73
2019-04-14T04:44:15.882Z,18.17
2019-04-14T04:49:44.621Z,18.25
2019-04-14T04:52:16.122Z,20.48
2019-04-14T04:57:17.826Z,19.05
2019-04-14T04:59:47.888Z,19.95
2019-04-14T05:02:17.903Z,18.80
2019-04-14T05:04:48.401Z,17.80
2019-04-14T05:07:18.809Z,19.15
2019-04-14T05:10:06.715Z,19.63
2019-04-14T05:12:41.391Z,18.67
2019-04-14T05:15:14.008Z,18.82
2019-04-14T05:17:45.587Z,20.25
2019-04-14T05:20:15.993Z,18.52
2019-04-14T05:22:46.189Z,18.47
2019-04-14T05:25:16.735Z,18.75
2019-04-14T05:27:47.371Z,19.25
2019-04-14T05:30:17.594Z,19.07
2019-04-14T05:32:47.975Z,19.90
2019-04-14T05:35:18.442Z,20.83
2019-04-14T05:37:48.713Z,18.97
2019-04-14T05:40:18.912Z,17.95
2019-04-14T05:42:49.431Z,17.87
2019-04-14T05:45:19.869Z,18.13
2019-04-14T05:47:50.201Z,19.25
2019-04-14T05:50:20.365Z,17.80
2019-04-14T05:52:51.398Z,17.27
2019-04-14T05:55:22.034Z,18.00
2019-04-14T05:57:52.484Z,16.27
2019-04-14T06:00:23.504Z,16.77
2019-04-14T06:02:53.580Z,18.27
2019-04-14T06:05:23.694Z,17.70
2019-04-14T06:07:55.546Z,17.30
2019-04-14T06:10:25.686Z,18.23
2019-04-14T06:12:56.068Z,17.95
2019-04-14T06:15:26.199Z,16.67
2019-04-14T06:17:56.139Z,16.42
2019-04-14T06:20:26.256Z,19.75
2019-04-14T06:22:56.386Z,17.80
2019-04-14T06:25:26.400Z,17.40
2019-04-14T06:27:56.524Z,19.37
2019-04-14T06:30:30.671Z,18.32
2019-04-14T06:33:02.364Z,19.00
2019-04-14T06:35:42.843Z,19.50
2019-04-14T06:38:14.563Z,18.60
2019-04-14T06:40:48.963Z,18.98
2019-04-14T06:43:18.975Z,17.48
2019-04-14T06:45:49.099Z,18.48
2019-04-14T06:48:19.249Z,19.30
2019-04-14T06:50:49.191Z,18.48
2019-04-14T06:53:19.172Z,19.65
2019-04-14T06:55:49.864Z,19.92
2019-04-14T06:58:19.906Z,18.95
2019-04-14T07:00:49.924Z,18.80
2019-04-14T07:03:19.967Z,18.70
2019-04-14T07:05:50.016Z,19.10
2019-04-14T07:08:20.094Z,18.87
2019-04-14T07:10:50.143Z,18.92
2019-04-14T07:13:20.202Z,21.05
2019-04-14T07:15:50.231Z,20.02
2019-04-14T07:18:20.347Z,19.30
2019-04-14T07:20:50.435Z,21.95
2019-04-14T07:23:20.479Z,20.88
2019-04-14T07:25:50.564Z,19.57
2019-04-14T07:28:20.620Z,19.95
2019-04-14T07:30:55.247Z,19.77
2019-04-14T07:33:36.064Z,19.30
2019-04-14T07:36:07.785Z,19.00
2019-04-14T07:38:44.872Z,18.32
2019-04-14T07:41:19.531Z,17.32
2019-04-14T07:43:53.637Z,16.12
2019-04-14T07:46:28.512Z,18.70
2019-04-14T07:49:08.932Z,18.80
2019-04-14T07:51:46.196Z,17.52
2019-04-14T07:54:20.246Z,17.23
2019-04-14T07:56:57.716Z,16.75
2019-04-14T07:59:30.332Z,16.27
2019-04-14T08:02:01.950Z,18.00
2019-04-14T08:04:33.563Z,17.37
2019-04-14T08:07:03.681Z,16.35
2019-04-14T08:09:33.814Z,18.32
2019-04-14T08:12:03.827Z,18.10
2019-04-14T08:14:33.908Z,19.32
2019-04-14T08:17:03.963Z,16.77
2019-04-14T08:19:33.912Z,18.10
2019-04-14T08:22:04.003Z,17.12
2019-04-14T08:24:34.122Z,16.70
2019-04-14T08:27:04.199Z,17.55
2019-04-14T08:29:34.311Z,18.23
2019-04-14T08:32:04.611Z,15.83
2019-04-14T08:34:34.813Z,15.98
2019-04-14T08:37:04.919Z,15.53
2019-04-14T08:39:35.211Z,16.97
2019-04-14T08:42:25.132Z,15.08
2019-04-14T08:44:56.753Z,15.38
2019-04-14T08:47:37.548Z,15.28
2019-04-14T08:50:12.091Z,15.70
2019-04-14T08:53:01.705Z,13.95
2019-04-14T08:55:38.943Z,15.25
2019-04-14T08:58:25.481Z,16.77
2019-04-14T09:01:12.117Z,14.00
2019-04-14T09:03:43.737Z,14.07
2019-04-14T09:06:18.500Z,13.32
2019-04-14T09:08:59.063Z,14.13
2019-04-14T09:11:30.671Z,13.70
2019-04-14T09:14:00.783Z,13.35
2019-04-14T09:16:30.831Z,13.22
2019-04-14T09:19:07.552Z,13.62
2019-04-14T09:21:33.347Z,14.05
2019-04-14T09:24:03.429Z,12.82
2019-04-14T09:26:33.563Z,13.78
2019-04-14T09:29:03.680Z,14.63
2019-04-14T09:31:33.692Z,14.53
2019-04-14T09:34:03.755Z,13.25
2019-04-14T09:36:33.803Z,14.30
2019-04-14T09:39:05.617Z,14.25
2019-04-14T09:41:37.321Z,14.50
2019-04-14T09:44:07.311Z,14.35
2019-04-14T09:46:37.403Z,14.98
2019-04-14T09:49:07.452Z,13.65
2019-04-14T09:51:37.427Z,14.90
2019-04-14T09:54:07.545Z,13.68
2019-04-14T09:56:37.672Z,13.68
2019-04-14T09:59:07.688Z,13.58
2019-04-14T10:01:37.739Z,13.30
2019-04-14T10:04:07.872Z,14.60
2019-04-14T10:06:40.722Z,14.43
2019-04-14T10:09:09.655Z,12.95
2019-04-14T10:11:48.353Z,13.45
2019-04-14T10:14:11.515Z,13.38
2019-04-14T10:16:41.556Z,12.23
2019-04-14T10:19:11.531Z,12.55
2019-04-14T10:21:41.543Z,13.30
2019-04-14T10:24:11.667Z,12.82
2019-04-14T10:26:41.783Z,11.43
2019-04-14T10:29:11.895Z,12.13
2019-04-14T10:31:41.965Z,10.50
2019-04-14T10:34:11.968Z,10.90
2019-04-14T10:36:42.087Z,11.30
2019-04-14T10:39:12.131Z,11.88
2019-04-14T10:41:42.247Z,11.22
2019-04-14T10:44:12.384Z,12.10
2019-04-14T10:46:48.254Z,11.10
2019-04-14T10:49:18.386Z,11.60
2019-04-14T10:51:49.448Z,10.20
2019-04-14T10:54:19.563Z,11.53
2019-04-14T10:56:49.691Z,12.40
2019-04-14T10:59:19.712Z,11.90
2019-04-14T11:01:49.833Z,10.48
2019-04-14T11:04:19.983Z,11.22
2019-04-14T11:07:00.484Z,9.85
2019-04-14T11:09:30.559Z,10.68
2019-04-14T11:12:00.627Z,10.82
2019-04-14T11:14:30.675Z,11.05
2019-04-14T11:17:00.791Z,10.23
2019-04-14T11:19:30.835Z,10.38
2019-04-14T11:22:00.847Z,10.38
2019-04-14T11:24:30.892Z,10.53
2019-04-14T11:27:01.023Z,10.82
2019-04-14T11:29:31.141Z,9.23
2019-04-14T11:32:14.700Z,11.30
2019-04-14T11:34:49.028Z,9.33
2019-04-14T11:37:20.838Z,9.60
2019-04-14T11:39:50.836Z,7.78
2019-04-14T11:42:20.881Z,8.35
2019-04-14T11:44:50.843Z,8.30
2019-04-14T11:47:20.850Z,7.53
2019-04-14T11:49:51.840Z,8.23
2019-04-14T11:52:21.855Z,7.58
2019-04-14T11:54:51.889Z,7.90
2019-04-14T11:57:21.987Z,7.28
2019-04-14T11:59:56.583Z,7.08
2019-04-14T12:02:44.186Z,7.35
2019-04-14T12:05:15.929Z,7.03
2019-04-14T12:07:47.571Z,6.50
2019-04-14T12:10:17.608Z,7.33
2019-04-14T12:12:47.585Z,6.80
2019-04-14T12:15:17.620Z,7.72
2019-04-14T12:17:47.670Z,6.87
2019-04-14T12:20:17.770Z,7.87
2019-04-14T12:22:47.951Z,6.20
2019-04-14T12:25:18.049Z,6.50
2019-04-14T12:27:48.914Z,7.03
2019-04-14T12:30:20.086Z,7.47
2019-04-14T12:32:50.280Z,7.78
2019-04-14T12:35:20.753Z,7.25
2019-04-14T12:37:50.751Z,8.70
2019-04-14T12:40:20.858Z,7.67
2019-04-14T12:42:58.272Z,7.83
2019-04-14T12:45:33.661Z,8.20
2019-04-14T12:48:20.319Z,8.98
2019-04-14T12:50:57.773Z,9.30
2019-04-14T12:53:27.822Z,8.88
2019-04-14T12:55:57.940Z,8.90
2019-04-14T12:58:32.503Z,9.43
2019-04-14T13:01:04.699Z,9.80
2019-04-14T13:03:35.175Z,9.48
2019-04-14T13:06:05.342Z,9.50
2019-04-14T13:08:35.347Z,9.95
2019-04-14T13:11:05.642Z,9.13
2019-04-14T13:13:35.683Z,9.93
2019-04-14T13:16:05.771Z,10.20
2019-04-14T13:18:35.875Z,9.95
2019-04-14T13:21:05.959Z,9.38
2019-04-14T13:23:36.073Z,7.97
2019-04-14T13:26:06.183Z,8.10
2019-04-14T13:28:36.280Z,7.87
2019-04-14T13:31:06.516Z,7.78
2019-04-14T13:33:36.475Z,7.85
2019-04-14T13:36:06.607Z,8.05
2019-04-14T13:38:36.715Z,7.42
2019-04-14T13:41:06.744Z,7.75
2019-04-14T13:43:36.783Z,7.10
2019-04-14T13:46:07.356Z,6.55
2019-04-14T13:48:37.475Z,6.70
2019-04-14T13:51:07.523Z,6.47
2019-04-14T13:53:37.484Z,7.03
2019-04-14T13:56:07.603Z,7.97
2019-04-14T13:58:40.631Z,6.58
2019-04-14T14:01:09.408Z,6.47
2019-04-14T14:03:39.459Z,6.80
2019-04-14T14:06:09.405Z,7.33
2019-04-14T14:08:39.430Z,6.78
2019-04-14T14:11:27.167Z,6.90
2019-04-14T14:13:58.843Z,6.83
2019-04-14T14:16:33.300Z,6.95
2019-04-14T14:19:04.963Z,6.40
2019-04-14T14:21:48.767Z,6.53
2019-04-14T14:24:26.483Z,5.55
2019-04-14T14:27:00.944Z,5.85
2019-04-14T14:29:31.022Z,6.20
2019-04-14T14:32:02.775Z,6.10
2019-04-14T14:34:32.863Z,5.85
2019-04-14T14:37:03.081Z,5.12
2019-04-14T14:39:33.292Z,5.50
2019-04-14T14:42:03.360Z,5.17
2019-04-14T14:44:35.047Z,4.55
2019-04-14T14:47:06.794Z,6.10
2019-04-14T14:49:39.396Z,4.90
2019-04-14T14:52:14.507Z,4.87
2019-04-14T14:54:44.563Z,4.45
2019-04-14T14:57:14.632Z,5.50
2019-04-14T14:59:44.572Z,4.87
2019-04-14T15:02:15.772Z,5.85
2019-04-14T15:04:46.663Z,4.90
2019-04-14T15:07:16.596Z,5.40
2019-04-14T15:09:46.631Z,4.60
2019-04-14T15:12:16.690Z,4.85
2019-04-14T15:14:46.632Z,5.12
2019-04-14T15:17:16.860Z,4.80
2019-04-14T15:19:47.969Z,5.37
2019-04-14T15:22:18.029Z,4.75
2019-04-14T15:24:49.004Z,4.22
2019-04-14T15:27:19.507Z,4.78
2019-04-14T15:29:49.560Z,4.63
2019-04-14T15:32:19.670Z,4.42
2019-04-14T15:34:49.787Z,5.15
2019-04-14T15:37:19.903Z,5.10
2019-04-14T15:39:49.974Z,4.65
2019-04-14T15:42:19.978Z,4.87
2019-04-14T15:44:50.051Z,4.65
2019-04-14T15:47:20.169Z,4.92
2019-04-14T15:49:50.244Z,4.90
2019-04-14T15:52:23.328Z,4.30
2019-04-14T15:54:53.468Z,4.30
2019-04-14T15:57:43.133Z,4.78
2019-04-14T16:00:27.037Z,4.40
2019-04-14T16:03:14.876Z,4.50
2019-04-14T16:05:48.118Z,4.72
2019-04-14T16:08:34.720Z,4.17
2019-04-14T16:11:06.472Z,4.00
2019-04-14T16:13:54.070Z,3.60
2019-04-14T16:16:41.960Z,4.17
2019-04-14T16:19:13.671Z,4.00
2019-04-14T16:21:43.709Z,3.77
2019-04-14T16:24:13.700Z,3.40
2019-04-14T16:27:03.218Z,3.33
2019-04-14T16:29:50.954Z,3.55
2019-04-14T16:32:25.663Z,3.37
2019-04-14T16:34:59.932Z,3.65
2019-04-14T16:37:29.872Z,3.70
2019-04-14T16:39:59.979Z,3.67
2019-04-14T16:42:30.088Z,3.98
2019-04-14T16:45:00.306Z,3.87
2019-04-14T16:47:30.410Z,3.90
2019-04-14T16:50:00.335Z,3.98
2019-04-14T16:52:34.818Z,4.30
2019-04-14T16:55:25.879Z,4.05
2019-04-14T16:58:00.691Z,4.37
2019-04-14T17:00:32.335Z,4.47
2019-04-14T17:03:02.603Z,4.58
2019-04-14T17:05:34.949Z,4.40
2019-04-14T17:10:34.228Z,3.40
2019-04-14T17:13:04.400Z,4.00
2019-04-14T17:15:36.106Z,3.75
2019-04-14T17:18:10.631Z,4.17
2019-04-14T17:20:51.224Z,4.25
2019-04-14T17:23:41.211Z,3.87
2019-04-14T17:26:12.926Z,3.65
2019-04-14T17:29:00.954Z,4.53
2019-04-14T17:31:50.647Z,3.90
2019-04-14T17:34:29.064Z,3.67
2019-04-14T17:37:17.073Z,4.20
2019-04-14T17:39:48.812Z,4.40
2019-04-14T17:42:26.195Z,3.75
2019-04-14T17:44:58.030Z,4.03
2019-04-14T17:47:47.902Z,4.42
2019-04-14T17:50:40.439Z,4.37
2019-04-14T17:53:13.571Z,3.77
2019-04-14T17:55:49.988Z,3.72
2019-04-14T17:58:21.316Z,3.30
2019-04-14T18:00:56.012Z,3.80
2019-04-14T18:03:36.762Z,4.40
2019-04-14T18:06:08.622Z,3.72
2019-04-14T18:08:56.483Z,5.50
2019-04-14T18:11:28.158Z,4.78
2019-04-14T18:14:02.624Z,4.87
2019-04-14T18:16:34.302Z,5.35
2019-04-14T18:19:12.020Z,4.90
2019-04-14T18:21:44.248Z,5.08
2019-04-14T18:24:14.123Z,5.40
2019-04-14T18:26:44.159Z,5.15
2019-04-14T18:29:27.930Z,5.30
2019-04-14T18:32:08.780Z,6.05
2019-04-14T18:34:48.995Z,5.65
2019-04-14T18:37:36.796Z,5.47
2019-04-14T18:40:10.222Z,6.35
2019-04-14T18:42:58.346Z,7.22
2019-04-14T18:45:30.088Z,7.90
2019-04-14T18:48:17.867Z,8.38
2019-04-14T18:51:05.943Z,9.30
2019-04-14T18:53:46.621Z,8.88
2019-04-14T18:56:21.467Z,9.97
2019-04-14T18:58:56.334Z,10.75
2019-04-14T19:01:28.057Z,10.90
2019-04-14T19:03:58.227Z,11.78
2019-04-14T19:06:28.333Z,13.72
2019-04-14T19:09:00.214Z,13.70
2019-04-14T19:11:51.466Z,14.00
2019-04-14T19:14:28.972Z,13.38
2019-04-14T19:17:03.531Z,14.70
2019-04-14T19:19:35.296Z,14.95
2019-04-14T19:22:05.379Z,13.15
2019-04-14T19:24:35.566Z,15.32
2019-04-14T19:27:06.649Z,14.15
2019-04-14T19:29:37.006Z,15.55
2019-04-14T19:32:07.240Z,15.60
2019-04-14T19:34:37.310Z,13.70
2019-04-14T19:37:07.414Z,14.83
2019-04-14T19:39:37.570Z,15.00
2019-04-14T19:42:07.898Z,13.40
2019-04-14T19:44:38.365Z,13.10
2019-04-14T19:47:08.488Z,12.30
2019-04-14T19:49:38.407Z,13.95
2019-04-14T19:52:08.435Z,13.53
2019-04-14T19:54:38.586Z,13.22
2019-04-14T19:57:08.611Z,11.95
2019-04-14T19:59:38.693Z,12.30
2019-04-14T20:02:08.811Z,13.00
2019-04-14T20:04:38.931Z,12.58
2019-04-14T20:07:09.659Z,13.18
2019-04-14T20:09:39.703Z,12.93
2019-04-14T20:12:09.882Z,13.43
2019-04-14T20:14:39.883Z,13.43
2019-04-14T20:17:14.332Z,13.95
2019-04-14T20:20:01.986Z,12.35
2019-04-14T20:22:48.755Z,13.20
2019-04-14T20:25:32.859Z,13.45
2019-04-14T20:28:08.725Z,13.48
2019-04-14T20:30:52.262Z,13.48
2019-04-14T20:33:22.391Z,13.00
2019-04-14T20:35:52.403Z,13.72
2019-04-14T20:38:22.527Z,14.87
2019-04-14T20:40:52.540Z,14.45
2019-04-14T20:43:22.759Z,14.85
2019-04-14T20:45:52.811Z,13.78
2019-04-14T20:48:22.940Z,13.00
2019-04-14T20:50:52.987Z,12.07
2019-04-14T20:53:25.186Z,13.30
2019-04-14T20:55:54.838Z,12.73
2019-04-14T20:58:24.981Z,13.38
2019-04-14T21:00:55.194Z,13.95
2019-04-14T21:03:27.122Z,13.98
2019-04-14T21:06:16.880Z,13.28
2019-04-14T21:08:50.175Z,12.15
2019-04-14T21:11:21.832Z,13.18
2019-04-14T21:14:00.926Z,14.65
2019-04-14T21:16:32.730Z,14.38
2019-04-14T21:22:08.483Z,13.90
2019-04-14T21:24:58.813Z,14.28
2019-04-14T21:27:57.031Z,14.30
2019-04-14T21:30:32.774Z,15.23
2019-04-14T21:33:04.572Z,16.02
2019-04-14T21:35:52.425Z,15.25
2019-04-14T21:38:39.109Z,15.78
2019-04-14T21:44:29.647Z,15.32
2019-04-14T21:46:59.770Z,16.30
2019-04-14T21:49:29.855Z,16.93
2019-04-14T21:52:01.535Z,17.45
2019-04-14T21:54:31.664Z,17.60
2019-04-14T21:57:19.408Z,17.23
2019-04-14T21:59:54.108Z,16.07
2019-04-14T22:02:42.268Z,16.60
2019-04-14T22:05:22.809Z,16.30
2019-04-14T22:08:00.574Z,16.00
2019-04-14T22:10:38.195Z,15.90
2019-04-14T22:13:08.284Z,16.45
2019-04-14T22:15:38.352Z,15.60
2019-04-14T22:18:08.486Z,15.98
2019-04-14T22:20:38.536Z,17.25
2019-04-14T22:23:10.339Z,17.35
2019-04-14T22:25:40.419Z,17.62
2019-04-14T22:28:10.646Z,16.23
2019-04-14T22:30:41.219Z,17.45
2019-04-14T22:33:11.356Z,17.75
2019-04-14T22:35:41.431Z,16.77
2019-04-14T22:38:11.627Z,16.00
2019-04-14T22:40:41.742Z,14.63
2019-04-14T22:43:11.808Z,18.32
2019-04-14T22:45:41.995Z,17.60
2019-04-14T22:48:12.107Z,17.55
2019-04-14T22:50:42.182Z,17.45
2019-04-14T22:53:12.226Z,16.95
2019-04-14T22:55:42.211Z,16.32
2019-04-14T22:58:12.330Z,15.78
2019-04-14T23:00:52.954Z,15.08
2019-04-14T23:03:35.343Z,15.28
2019-04-14T23:06:13.084Z,16.85
2019-04-14T23:08:48.703Z,17.00
2019-04-14T23:11:35.359Z,17.85
2019-04-14T23:14:10.064Z,17.23
2019-04-14T23:16:57.932Z,15.98
2019-04-14T23:19:45.666Z,15.25
2019-04-14T23:22:30.539Z,16.30
2019-04-14T23:25:00.695Z,16.95
2019-04-14T23:27:30.667Z,16.62
2019-04-14T23:30:00.694Z,15.18
2019-04-14T23:32:30.679Z,16.25
2019-04-14T23:35:00.783Z,16.93
2019-04-14T23:37:32.063Z,16.10
2019-04-14T23:40:02.171Z,16.77
2019-04-14T23:42:32.268Z,16.77
2019-04-14T23:45:02.311Z,16.62
2019-04-14T23:47:32.463Z,16.23
2019-04-14T23:50:02.663Z,15.75
2019-04-14T23:52:32.772Z,15.63
2019-04-14T23:55:02.828Z,16.35
2019-04-14T23:57:32.840Z,16.23
